Time;durP1;ratioP1;P1;durP2;ratioP2;P2;SDS_P1;SDS_P2;PMS_P1;PMS_P2;Temp;Humidity;BMP_temperature;BMP_pressure;BME280_temperature;BME280_humidity;BME280_pressure;Samples;Min_cycle;Max_cycle;Signal;HPM_P1;HPM_P2
2021/03/14 00:00:54;;;;;;;37.40;26.63;;;;;;;0.87;100.00;101271.41;1611542;89;21104;-85
2021/03/14 00:03:26;;;;;;;36.95;25.45;;;;;;;0.87;100.00;101271.41;1609934;89;21062;-84
2021/03/14 00:12:54;;;;;;;36.23;26.15;;;;;;;0.87;100.00;101274.40;1687839;83;21646;-85
2021/03/14 00:15:24;;;;;;;36.63;25.88;;;;;;;0.89;100.00;101268.85;1686551;85;21211;-86
2021/03/14 00:18:05;;;;;;;37.43;25.60;;;;;;;0.90;100.00;101261.58;1686693;82;21259;31
2021/03/14 00:20:34;;;;;;;35.68;24.77;;;;;;;0.92;100.00;101252.19;1620782;88;22042;-84
2021/03/14 00:27:21;;;;;;;35.23;23.70;;;;;;;0.94;100.00;101242.78;1645803;87;21100;-84
2021/03/14 00:29:54;;;;;;;35.40;24.40;;;;;;;0.95;100.00;101240.20;1615863;88;21195;-85
2021/03/14 00:32:23;;;;;;;30.52;22.98;;;;;;;0.94;100.00;101231.28;1611451;88;21629;-85
2021/03/14 00:34:51;;;;;;;30.52;23.40;;;;;;;0.94;100.00;101233.83;1613982;88;22122;-84
2021/03/14 00:37:20;;;;;;;30.97;22.15;;;;;;;0.90;100.00;101227.92;1614115;88;21210;-85
2021/03/14 00:39:48;;;;;;;34.95;24.23;;;;;;;0.84;100.00;101236.13;1613588;88;21680;-84
2021/03/14 00:42:16;;;;;;;33.23;23.50;;;;;;;0.77;100.00;101231.98;1610096;87;21586;-84
2021/03/14 00:44:44;;;;;;;33.67;22.85;;;;;;;0.73;100.00;101235.48;1609966;88;21495;-84
2021/03/14 00:47:13;;;;;;;33.98;22.32;;;;;;;0.71;100.00;101230.81;1609328;88;22087;-85
2021/03/14 00:49:41;;;;;;;32.13;22.80;;;;;;;0.68;100.00;101225.33;1611978;88;21528;-84
2021/03/14 00:52:09;;;;;;;31.93;22.15;;;;;;;0.65;100.00;101229.22;1612724;88;21709;-84
2021/03/14 00:54:39;;;;;;;33.73;23.50;;;;;;;0.69;100.00;101228.73;1610032;88;21645;-85
2021/03/14 00:57:53;;;;;;;32.48;22.98;;;;;;;0.72;100.00;101229.53;1614978;88;21210;-83
2021/03/14 01:00:23;;;;;;;31.62;22.42;;;;;;;0.74;100.00;101220.12;1615141;88;21561;-85
2021/03/14 01:02:53;;;;;;;29.80;21.30;;;;;;;0.78;100.00;101220.91;1612426;88;21104;-84
2021/03/14 01:05:22;;;;;;;28.00;20.08;;;;;;;0.80;100.00;101221.29;1610865;88;21234;-84
2021/03/14 01:07:51;;;;;;;30.40;20.17;;;;;;;0.81;100.00;101219.16;1613619;87;21195;-84
2021/03/14 01:10:31;;;;;;;29.80;20.30;;;;;;;0.80;100.00;101220.47;1588484;88;21139;-84
2021/03/14 01:13:02;;;;;;;30.10;20.77;;;;;;;0.78;100.00;101224.31;1586559;88;22103;-84
2021/03/14 01:15:33;;;;;;;29.20;20.65;;;;;;;0.77;100.00;101222.62;1584682;88;21574;-84
2021/03/14 01:18:03;;;;;;;26.20;19.40;;;;;;;0.75;100.00;101226.92;1610310;88;21186;-84
2021/03/14 01:20:35;;;;;;;27.87;19.55;;;;;;;0.75;100.00;101223.52;1605746;87;21654;-84
2021/03/14 01:23:03;;;;;;;25.15;18.57;;;;;;;0.78;100.00;101224.74;1608370;89;21515;-83
2021/03/14 01:25:31;;;;;;;25.62;19.00;;;;;;;0.83;100.00;101224.25;1605780;89;21598;-84
2021/03/14 01:27:59;;;;;;;25.15;18.67;;;;;;;0.90;100.00;101224.52;1605974;89;21188;-84
2021/03/14 01:30:28;;;;;;;24.95;18.55;;;;;;;0.92;100.00;101222.81;1606267;89;21210;-84
2021/03/14 01:32:56;;;;;;;22.48;16.30;;;;;;;0.91;100.00;101211.73;1604595;89;21112;-84
2021/03/14 01:35:39;;;;;;;21.12;14.53;;;;;;;0.92;100.00;101217.70;1609118;89;21159;-83
2021/03/14 01:38:10;;;;;;;21.35;13.20;;;;;;;0.92;100.00;101213.87;1609710;88;21831;-84
2021/03/14 01:44:35;;;;;;;16.80;12.33;;;;;;;0.83;100.00;101211.48;1617203;88;21567;-84
2021/03/14 01:48:02;;;;;;;18.37;14.00;;;;;;;0.84;100.00;101201.64;1617550;87;21203;-84
2021/03/14 01:50:34;;;;;;;20.82;14.38;;;;;;;0.89;100.00;101189.19;1617370;88;21147;-81
2021/03/14 01:53:36;;;;;;;20.37;14.38;;;;;;;0.97;100.00;101192.89;1617242;88;21353;-83
2021/03/14 01:56:06;;;;;;;21.10;13.88;;;;;;;0.98;100.00;101192.03;1589476;88;21802;-84
2021/03/14 01:58:49;;;;;;;22.80;14.85;;;;;;;1.05;100.00;101194.42;1838837;77;22563;-84
2021/03/14 02:01:17;;;;;;;21.48;14.47;;;;;;;1.00;100.00;101186.45;1780491;79;20986;-84
2021/03/14 02:03:45;;;;;;;21.00;15.15;;;;;;;0.98;100.00;101184.37;1748673;81;21680;-84
2021/03/14 02:06:13;;;;;;;18.23;13.30;;;;;;;0.92;100.00;101187.88;1776442;80;21014;-84
2021/03/14 02:08:47;;;;;;;17.65;13.58;;;;;;;0.93;100.00;101192.53;1744696;82;20979;-83
2021/03/14 02:11:55;;;;;;;19.65;14.00;;;;;;;0.86;100.00;101193.08;1745480;81;21002;-83
2021/03/14 02:14:59;;;;;;;18.32;13.15;;;;;;;0.87;100.00;101191.37;1768688;79;22267;-85
2021/03/14 02:17:30;;;;;;;19.27;13.08;;;;;;;0.84;100.00;101196.10;1742274;81;21456;-84
2021/03/14 02:20:14;;;;;;;20.70;15.23;;;;;;;0.87;100.00;101195.20;1713990;82;21267;-83
2021/03/14 02:22:47;;;;;;;20.95;14.78;;;;;;;0.90;100.00;101197.27;1742085;81;21781;-84
2021/03/14 02:25:26;;;;;;;24.55;15.03;;;;;;;0.97;100.00;101188.63;1742985;81;21477;-84
2021/03/14 02:27:59;;;;;;;19.65;13.85;;;;;;;1.03;100.00;101191.50;1746290;81;21804;-84
2021/03/14 02:30:39;;;;;;;;;;;;;;;;;;;;;
2021/03/14 02:33:42;;;;;;;19.37;14.05;;;;;;;1.10;100.00;101191.80;1745017;81;21058;-84
2021/03/14 02:36:10;;;;;;;18.27;13.58;;;;;;;1.14;100.00;101187.47;1745206;82;21169;-83
2021/03/14 02:38:42;;;;;;;19.10;13.22;;;;;;;1.13;100.00;101183.22;1739276;82;21596;-82
2021/03/14 02:41:10;;;;;;;20.57;14.10;;;;;;;1.08;100.00;101175.66;1710868;82;21156;-84
2021/03/14 02:43:39;;;;;;;18.40;13.70;;;;;;;0.98;100.00;101171.59;1744037;82;21468;-83
2021/03/14 02:46:07;;;;;;;18.95;13.35;;;;;;;0.91;100.00;101170.86;1741589;82;21608;-84
2021/03/14 02:48:36;;;;;;;18.75;14.35;;;;;;;0.86;100.00;101170.08;1741069;82;21184;-84
2021/03/14 02:51:09;;;;;;;16.95;13.18;;;;;;;0.81;100.00;101168.48;1742239;82;21622;-81
2021/03/14 02:53:37;;;;;;;19.37;14.65;;;;;;;0.77;100.00;101169.41;1713183;82;21629;-82
2021/03/14 02:56:05;;;;;;;16.45;13.80;;;;;;;0.75;100.00;101165.62;1741952;82;21671;-84
2021/03/14 02:58:34;;;;;;;17.12;13.22;;;;;;;0.68;100.00;101170.42;1740837;82;21580;-83
2021/03/14 03:01:02;;;;;;;17.20;13.43;;;;;;;0.61;100.00;101173.94;1688156;82;21493;-84
2021/03/14 03:03:31;;;;;;;17.35;12.80;;;;;;;0.56;100.00;101174.90;1739860;81;21501;-84
2021/03/14 03:06:00;;;;;;;14.50;12.10;;;;;;;0.52;100.00;101174.10;1738584;81;21478;-82
2021/03/14 03:08:29;;;;;;;15.25;12.95;;;;;;;0.51;100.00;101166.88;1742794;81;21438;-82
2021/03/14 03:11:05;;;;;;;16.10;12.95;;;;;;;0.54;100.00;101171.92;1745639;82;21927;-82
2021/03/14 03:13:36;;;;;;;15.10;12.30;;;;;;;0.60;100.00;101171.43;1740216;81;21109;-83
2021/03/14 03:16:13;;;;;;;17.85;13.40;;;;;;;0.68;100.00;101169.57;1731336;82;28507;-83
2021/03/14 03:18:44;;;;;;;16.07;12.73;;;;;;;0.75;100.00;101166.05;1729084;82;21142;-82
2021/03/14 03:21:13;;;;;;;18.45;14.45;;;;;;;0.76;100.00;101162.20;1710748;82;21180;-82
2021/03/14 03:23:44;;;;;;;18.35;13.95;;;;;;;0.80;100.00;101164.27;1730244;82;21253;-83
2021/03/14 03:26:13;;;;;;;17.90;14.58;;;;;;;0.82;100.00;101159.53;1729927;82;21486;-83
2021/03/14 03:29:05;;;;;;;;;;;;;;;0.86;100.00;101166.25;1731127;82;21201;-83
2021/03/14 03:31:33;;;;;;;19.57;14.95;;;;;;;0.84;100.00;101170.55;1728665;81;20293;-85
2021/03/14 03:34:01;;;;;;;16.30;12.15;;;;;;;0.82;100.00;101167.20;1725539;82;21556;-84
2021/03/14 03:36:30;;;;;;;17.80;14.15;;;;;;;0.81;100.00;101167.21;1725838;82;21758;-84
2021/03/14 03:38:58;;;;;;;19.50;14.38;;;;;;;0.80;100.00;101170.20;1726499;82;21780;-83
2021/03/14 03:41:28;;;;;;;18.15;14.43;;;;;;;0.78;100.00;101174.50;1703081;82;21200;-83
2021/03/14 03:43:57;;;;;;;18.70;14.83;;;;;;;0.77;100.00;101171.95;1725929;82;21557;-83
2021/03/14 03:46:26;;;;;;;19.00;14.23;;;;;;;0.75;100.00;101173.70;1725296;82;21141;-83
2021/03/14 03:48:56;;;;;;;19.50;15.08;;;;;;;0.72;100.00;101169.50;1726248;82;22028;-82
2021/03/14 03:51:27;;;;;;;20.72;15.48;;;;;;;0.69;100.00;101164.45;1732690;81;21169;-82
2021/03/14 03:53:58;;;;;;;19.57;14.80;;;;;;;0.69;100.00;101165.73;1731549;82;21035;-83
2021/03/14 04:00:26;;;;;;;21.37;15.23;;;;;;;0.77;100.00;101156.20;1678651;83;21643;-83
2021/03/14 04:02:54;;;;;;;22.15;15.25;;;;;;;0.83;100.00;101159.11;1618603;87;21226;-84
2021/03/14 04:05:22;;;;;;;21.60;15.68;;;;;;;0.84;100.00;101153.95;1674595;84;21660;-85
2021/03/14 04:07:51;;;;;;;20.90;16.35;;;;;;;0.84;100.00;101150.55;1677336;84;21501;-84
2021/03/14 04:10:21;;;;;;;23.10;17.73;;;;;;;0.83;100.00;101151.44;1679203;84;21168;-84
2021/03/14 04:12:50;;;;;;;25.62;18.23;;;;;;;0.82;100.00;101148.47;1681897;85;21221;-84
2021/03/14 04:16:09;;;;;;;23.55;17.35;;;;;;;0.90;100.00;101147.88;1801938;79;23982;-85
2021/03/14 04:18:51;;;;;;;23.45;17.20;;;;;;;0.93;100.00;101148.66;1735193;81;21092;-85
2021/03/14 04:21:54;;;;;;;24.52;17.80;;;;;;;1.01;100.00;101151.94;1765009;81;21399;-85
2021/03/14 04:24:27;;;;;;;21.97;16.32;;;;;;;1.12;100.00;101150.89;1746094;79;21592;-82
2021/03/14 04:27:45;;;;;;;23.98;16.93;;;;;;;1.23;100.00;101145.11;1699600;83;21122;-83
2021/03/14 04:30:35;;;;;;;25.12;17.92;;;;;;;1.31;100.00;101138.14;1717801;83;20978;-83
2021/03/14 04:38:16;;;;;;;26.45;19.10;;;;;;;1.49;100.00;101135.20;1854433;77;26399;-85
2021/03/14 04:41:01;;;;;;;24.43;17.80;;;;;;;1.52;100.00;101144.92;1815888;77;21252;-85
2021/03/14 04:44:32;;;;;;;24.10;17.17;;;;;;;1.59;100.00;101145.20;1596762;83;22535;-82
2021/03/14 04:49:03;;;;;;;27.07;17.92;;;;;;;1.75;100.00;101139.31;1924995;74;27777;-83
2021/03/14 04:52:04;;;;;;;29.65;20.60;;;;;;;1.80;100.00;101139.20;1804320;79;21014;-83
2021/03/14 04:54:37;;;;;;;28.10;18.98;;;;;;;1.88;100.00;101138.13;1810549;77;21033;-83
2021/03/14 04:57:05;;;;;;;29.67;19.32;;;;;;;1.93;100.00;101127.38;1804946;78;20995;-85
2021/03/14 04:59:35;;;;;;;32.75;21.15;;;;;;;2.00;100.00;101125.52;1781557;79;20922;-85
2021/03/14 05:02:26;;;;;;;39.70;22.75;;;;;;;2.06;100.00;101127.49;1805855;79;21145;-83
2021/03/14 05:04:55;;;;;;;38.67;21.30;;;;;;;2.15;100.00;101118.74;1770511;79;21536;-83
2021/03/14 05:07:24;;;;;;;37.78;21.60;;;;;;;2.22;100.00;101116.88;1766113;79;21583;-86
2021/03/14 05:09:54;;;;;;;39.98;21.55;;;;;;;2.28;100.00;101118.84;1765120;79;21177;-84
2021/03/14 05:12:22;;;;;;;33.90;20.65;;;;;;;2.38;100.00;101120.73;1800386;79;21398;-84
2021/03/14 05:15:00;;;;;;;40.45;22.75;;;;;;;2.43;100.00;101119.73;1793434;79;21201;-84
2021/03/14 05:17:50;;;;;;;47.60;25.25;;;;;;;2.51;100.00;101123.39;1856937;76;21073;-84
2021/03/14 05:20:20;;;;;;;42.20;25.12;;;;;;;2.61;100.00;101129.97;1788809;79;21596;-84
2021/03/14 05:23:14;;;;;;;38.38;24.18;;;;;;;2.68;100.00;101126.34;1775276;79;21152;-84
2021/03/14 05:25:45;;;;;;;38.25;23.55;;;;;;;2.74;100.00;101123.64;1790462;79;21192;-84
2021/03/14 05:28:19;;;;;;;41.30;24.55;;;;;;;2.77;100.00;101118.87;1769017;79;21070;-84
2021/03/14 05:31:33;;;;;;;39.88;25.17;;;;;;;2.80;100.00;101123.48;1800750;78;21061;-85
2021/03/14 05:34:04;;;;;;;42.00;25.82;;;;;;;2.85;100.00;101122.05;1771439;79;21755;-85
2021/03/14 05:36:35;;;;;;;37.90;24.40;;;;;;;2.94;100.00;101135.90;1798186;79;21157;-83
2021/03/14 05:39:05;;;;;;;36.60;24.20;;;;;;;3.00;100.00;101140.42;1796978;79;21490;-84
2021/03/14 05:46:43;;;;;;;32.27;23.10;;;;;;;3.13;100.00;101142.20;1669247;81;21618;-83
2021/03/14 05:53:26;;;;;;;33.73;24.10;;;;;;;3.28;100.00;101142.23;1748311;77;20427;-83
2021/03/14 05:56:02;;;;;;;32.70;23.05;;;;;;;3.35;100.00;101150.16;1805619;77;20930;31
2021/03/14 05:58:54;;;;;;;30.97;23.12;;;;;;;3.41;100.00;101150.83;1725077;77;21125;-85
2021/03/14 06:01:33;;;;;;;33.48;24.67;;;;;;;3.49;100.00;101139.04;1700992;81;21203;-85
2021/03/14 06:08:35;;;;;;;39.63;27.52;;;;;;;3.66;100.00;101154.80;1686953;81;21497;-83
2021/03/14 06:11:12;;;;;;;35.73;26.37;;;;;;;3.74;100.00;101158.80;1617737;82;21280;-84
2021/03/14 06:13:44;;;;;;;35.20;26.15;;;;;;;3.77;100.00;101155.30;1674191;78;21607;-85
2021/03/14 06:16:15;;;;;;;36.75;27.62;;;;;;;3.78;100.00;101153.14;1719463;78;21466;-86
2021/03/14 06:18:52;;;;;;;33.65;24.85;;;;;;;3.83;100.00;101164.09;1684603;81;21819;-85
2021/03/14 06:21:35;;;;;;;31.37;24.37;;;;;;;3.85;99.78;101161.49;1757135;80;21228;-86
2021/03/14 06:24:10;;;;;;;31.73;24.60;;;;;;;3.88;99.26;101161.39;1751059;78;21180;-85
2021/03/14 06:26:51;;;;;;;34.58;24.75;;;;;;;3.89;99.01;101152.81;1756317;81;21032;-88
2021/03/14 06:29:22;;;;;;;31.25;23.98;;;;;;;3.97;98.85;101156.82;1748740;80;21535;-87
2021/03/14 06:32:00;;;;;;;33.45;25.23;;;;;;;4.02;98.70;101147.23;1746900;80;21879;-88
2021/03/14 06:34:38;;;;;;;34.60;26.65;;;;;;;4.09;98.82;101158.16;1742320;80;21168;-86
2021/03/14 06:37:16;;;;;;;38.17;27.45;;;;;;;4.15;98.75;101161.38;1745142;80;21267;-87
2021/03/14 06:39:47;;;;;;;34.70;26.55;;;;;;;4.22;98.74;101159.45;1766569;79;21705;-85
2021/03/14 06:42:34;;;;;;;34.18;25.37;;;;;;;4.25;98.60;101160.20;1772686;79;21507;-86
2021/03/14 06:45:14;;;;;;;36.40;27.20;;;;;;;4.30;98.61;101157.93;1772630;79;21863;-85
2021/03/14 06:47:48;;;;;;;39.08;28.98;;;;;;;4.36;98.78;101161.14;1772418;79;21577;-86
2021/03/14 06:50:37;;;;;;;43.25;29.90;;;;;;;4.42;98.67;101154.95;1770415;79;21056;-85
2021/03/14 06:53:16;;;;;;;41.28;28.87;;;;;;;4.50;98.76;101156.84;1772803;79;21487;-85
2021/03/14 06:55:50;;;;;;;45.08;31.23;;;;;;;4.63;98.76;101155.08;1773502;78;21546;-85
2021/03/14 06:58:27;;;;;;;45.10;31.20;;;;;;;4.71;98.71;101154.83;1771779;79;21558;-85
2021/03/14 07:01:16;;;;;;;46.68;31.50;;;;;;;4.80;98.67;101159.21;1765258;79;21234;-85
2021/03/14 07:03:52;;;;;;;52.15;34.00;;;;;;;4.89;98.57;101163.19;1771629;78;21666;-85
2021/03/14 07:06:25;;;;;;;56.48;34.63;;;;;;;4.99;98.48;101161.98;1775085;78;21089;-85
2021/03/14 07:08:57;;;;;;;47.60;33.15;;;;;;;5.11;98.41;101161.54;1772661;78;21460;-85
2021/03/14 07:11:37;;;;;;;47.20;33.10;;;;;;;5.29;98.31;101158.33;1772279;79;21904;-84
2021/03/14 07:14:11;;;;;;;46.98;32.42;;;;;;;5.44;97.89;101156.92;1768424;78;21651;-86
2021/03/14 07:16:51;;;;;;;49.85;35.08;;;;;;;5.58;97.36;101147.41;1767580;78;21167;-84
2021/03/14 07:19:28;;;;;;;51.28;34.67;;;;;;;5.72;96.99;101148.55;1755882;79;21562;-85
2021/03/14 07:22:04;;;;;;;49.13;33.40;;;;;;;5.77;96.57;101142.78;1766304;78;21161;-84
2021/03/14 07:24:42;;;;;;;43.48;32.40;;;;;;;5.87;96.45;101142.02;1765368;79;21909;-85
2021/03/14 07:27:19;;;;;;;44.45;32.20;;;;;;;6.01;96.40;101137.59;1771127;78;21075;-84
2021/03/14 07:29:49;;;;;;;45.67;32.35;;;;;;;6.13;96.29;101128.92;1769498;78;21119;-83
2021/03/14 07:32:18;;;;;;;46.85;33.67;;;;;;;6.25;96.07;101123.73;1773956;79;21749;-84
2021/03/14 07:34:46;;;;;;;49.13;35.17;;;;;;;6.31;95.86;101112.73;1769382;79;21586;-84
2021/03/14 07:37:15;;;;;;;51.40;35.68;;;;;;;6.35;95.67;101110.83;1772817;79;22002;-84
2021/03/14 07:39:48;;;;;;;50.63;35.33;;;;;;;6.31;95.81;101108.02;1773295;78;21666;-84
2021/03/14 07:42:19;;;;;;;43.55;32.03;;;;;;;6.25;96.28;101105.70;1770884;78;21691;-84
2021/03/14 07:44:48;;;;;;;44.15;31.75;;;;;;;6.25;97.07;101100.55;1770178;79;21750;-84
2021/03/14 07:47:20;;;;;;;51.60;35.03;;;;;;;6.33;97.98;101105.76;1775956;78;21607;-83
2021/03/14 07:49:51;;;;;;;48.68;35.23;;;;;;;6.51;97.92;101110.58;1773709;78;21827;-84
2021/03/14 07:52:27;;;;;;;47.03;34.45;;;;;;;6.72;97.45;101105.83;1772569;79;22046;-85
2021/03/14 07:55:00;;;;;;;49.13;34.60;;;;;;;7.01;96.96;101103.71;1773611;79;21479;-86
2021/03/14 07:57:31;;;;;;;42.98;32.30;;;;;;;7.31;96.36;101102.32;1773276;79;21052;-85
2021/03/14 08:00:25;;;;;;;45.52;33.42;;;;;;;7.59;95.92;101101.47;1752611;80;21181;-84
2021/03/14 08:03:06;;;;;;;46.40;35.05;;;;;;;7.91;95.09;101096.88;1741752;81;21985;-84
2021/03/14 08:05:44;;;;;;;49.48;35.38;;;;;;;8.17;93.58;101098.20;1711237;80;21120;-84
2021/03/14 08:08:26;;;;;;;43.30;33.13;;;;;;;8.34;92.15;101097.41;1707113;80;21683;-83
2021/03/14 08:10:55;;;;;;;45.55;33.38;;;;;;;8.55;90.79;101095.51;1703878;80;21525;-83
2021/03/14 08:13:34;;;;;;;47.13;35.25;;;;;;;8.72;89.77;101097.59;1703128;80;21635;-84
2021/03/14 08:16:08;;;;;;;48.60;35.08;;;;;;;8.94;89.22;101091.69;1705003;80;21868;-82
2021/03/14 08:18:43;;;;;;;45.50;33.42;;;;;;;9.15;88.73;101096.66;1768420;78;21662;-78
2021/03/14 08:21:33;;;;;;;47.43;33.08;;;;;;;9.28;87.39;101096.39;1762993;79;21495;-83
2021/03/14 08:24:03;;;;;;;42.60;32.67;;;;;;;9.30;85.74;101091.95;1764717;79;21563;-83
2021/03/14 08:26:33;;;;;;;43.70;30.82;;;;;;;9.35;84.26;101083.49;1768910;79;21597;-83
2021/03/14 08:29:13;;;;;;;44.45;32.15;;;;;;;9.37;83.98;101085.08;1773472;78;21655;-81
2021/03/14 08:31:50;;;;;;;46.20;32.30;;;;;;;9.33;83.78;101088.73;1773342;78;21471;-83
2021/03/14 08:34:30;;;;;;;47.00;32.70;;;;;;;9.33;83.77;101086.16;1735796;80;21595;-84
2021/03/14 08:36:59;;;;;;;44.33;32.23;;;;;;;9.43;84.11;101087.33;1730889;80;21172;-83
2021/03/14 08:39:39;;;;;;;52.08;34.63;;;;;;;9.52;83.71;101080.80;1712973;80;21728;-83
2021/03/14 08:42:15;;;;;;;45.88;33.80;;;;;;;9.64;83.50;101083.16;1713453;82;21552;-79
2021/03/14 08:44:46;;;;;;;45.63;33.92;;;;;;;9.81;83.36;101083.07;1723972;81;21171;-79
2021/03/14 08:47:18;;;;;;;49.60;35.28;;;;;;;9.84;82.29;101082.90;1673739;83;21599;-85
2021/03/14 08:49:49;;;;;;;;;;;;;;;9.76;81.59;101085.94;1715266;80;21662;-83
2021/03/14 08:52:20;;;;;;;51.20;34.83;;;;;;;9.81;82.38;101080.48;1773259;78;20498;-81
2021/03/14 08:54:51;;;;;;;48.23;34.88;;;;;;;9.92;82.39;101076.35;1769041;79;22063;-80
2021/03/14 08:57:22;;;;;;;50.73;36.35;;;;;;;9.95;81.93;101077.50;1770538;78;21178;-84
2021/03/14 08:59:53;;;;;;;52.43;34.78;;;;;;;9.98;82.30;101081.67;1769365;79;21653;-81
2021/03/14 09:02:28;;;;;;;50.52;35.17;;;;;;;10.02;81.76;101076.20;1771432;78;21668;-85
2021/03/14 09:05:19;;;;;;;48.15;34.78;;;;;;;10.09;81.49;101080.13;1771967;78;21171;-83
2021/03/14 09:08:01;;;;;;;47.62;34.20;;;;;;;10.16;81.39;101070.27;1773459;78;23075;-81
2021/03/14 09:10:35;;;;;;;51.18;37.28;;;;;;;10.29;81.00;101070.39;1771811;79;21492;-82
2021/03/14 09:13:07;;;;;;;50.00;36.23;;;;;;;10.27;81.02;101064.47;1772074;78;21479;-82
2021/03/14 09:15:49;;;;;;;49.73;35.75;;;;;;;10.41;81.26;101067.08;1770658;79;21274;-82
2021/03/14 09:18:28;;;;;;;53.75;38.88;;;;;;;10.60;80.83;101060.71;1746872;80;21796;-80
2021/03/14 09:21:00;;;;;;;54.38;40.45;;;;;;;10.71;80.04;101050.99;1761588;78;21905;-80
2021/03/14 09:23:41;;;;;;;;;;;;;;;10.81;79.94;101039.13;1759740;79;21645;-77
2021/03/14 09:26:11;;;;;;;53.92;38.58;;;;;;;10.99;79.28;101041.89;1718407;81;20510;-83
2021/03/14 09:28:46;;;;;;;51.23;37.80;;;;;;;11.20;78.18;101031.91;1761702;78;21578;-82
2021/03/14 09:31:15;;;;;;;56.73;39.88;;;;;;;11.41;77.75;101026.69;1771064;78;21463;-82
2021/03/14 09:33:46;;;;;;;52.20;40.17;;;;;;;11.51;76.66;101019.97;1772446;79;21661;-85
2021/03/14 09:36:19;;;;;;;54.42;39.67;;;;;;;11.59;76.78;101018.16;1773228;79;21552;-82
2021/03/14 09:38:59;;;;;;;54.15;39.78;;;;;;;11.52;75.71;101015.58;1770558;78;21494;-83
2021/03/14 09:41:45;;;;;;;57.33;41.33;;;;;;;11.51;75.79;101017.38;1745378;78;21267;-82
2021/03/14 09:44:25;;;;;;;56.70;42.65;;;;;;;11.57;76.21;101016.98;1761993;79;21647;-82
2021/03/14 09:46:57;;;;;;;52.45;40.35;;;;;;;11.51;74.85;101012.17;1746106;80;21962;-80
2021/03/14 09:49:33;;;;;;;54.75;41.63;;;;;;;11.38;75.74;101011.29;1693968;82;21651;-82
2021/03/14 09:52:03;;;;;;;55.38;40.38;;;;;;;11.41;76.17;101012.39;1736067;79;21714;-81
2021/03/14 09:54:33;;;;;;;56.55;41.88;;;;;;;11.41;76.52;101001.16;1769098;79;21443;-81
2021/03/14 09:57:02;;;;;;;52.70;40.65;;;;;;;11.46;76.47;101002.52;1735695;81;21456;-85
2021/03/14 09:59:47;;;;;;;51.83;41.45;;;;;;;11.54;76.24;101011.14;1721342;80;22062;-86
2021/03/14 10:02:17;;;;;;;55.25;41.05;;;;;;;11.52;75.73;100995.63;1681006;81;21472;-80
2021/03/14 10:05:02;;;;;;;51.48;40.10;;;;;;;11.56;76.18;101008.80;1770888;78;21476;-83
2021/03/14 10:07:30;;;;;;;54.08;41.77;;;;;;;11.81;75.66;101007.23;1769760;79;21551;-82
2021/03/14 10:10:00;;;;;;;50.30;41.50;;;;;;;11.92;74.40;101002.17;1770628;78;21539;-81
2021/03/14 10:12:34;;;;;;;46.40;38.92;;;;;;;12.16;74.57;100997.92;1772561;78;22448;-81
2021/03/14 10:15:04;;;;;;;51.10;41.75;;;;;;;12.77;73.95;100988.05;1735552;80;21230;-84
2021/03/14 10:17:34;;;;;;;45.70;38.10;;;;;;;13.71;70.02;100992.54;1741437;80;21127;-83
2021/03/14 10:20:03;;;;;;;46.08;37.83;;;;;;;14.47;65.78;100982.87;1768795;78;21063;-80
2021/03/14 10:22:33;;;;;;;44.88;37.40;;;;;;;15.34;63.72;100971.59;1775908;79;21627;-80
2021/03/14 10:25:29;;;;;;;44.25;38.63;;;;;;;15.96;60.99;100969.53;1704681;81;23201;-85
2021/03/14 10:28:17;;;;;;;41.80;36.17;;;;;;;16.25;59.65;100964.82;1942820;73;23128;-76
2021/03/14 10:30:53;;;;;;;41.30;36.28;;;;;;;16.24;56.86;100960.53;1850558;74;21582;-82
2021/03/14 10:33:32;;;;;;;42.25;36.88;;;;;;;15.99;57.71;100959.63;1876927;74;21894;-84
2021/03/14 10:36:06;;;;;;;38.63;34.53;;;;;;;15.98;58.21;100955.85;1909664;74;21656;-84
2021/03/14 10:38:45;;;;;;;42.53;36.50;;;;;;;16.03;58.11;100946.65;1908290;74;21448;-83
2021/03/14 10:41:21;;;;;;;36.33;32.30;;;;;;;16.81;56.63;100937.71;1907605;74;21430;-86
2021/03/14 10:43:54;;;;;;;34.55;30.77;;;;;;;17.95;53.61;100923.44;1907672;74;21588;-85
2021/03/14 10:46:49;;;;;;;33.20;29.80;;;;;;;18.78;50.40;100914.20;1908695;74;21931;-80
2021/03/14 10:49:28;;;;;;;29.95;26.95;;;;;;;19.62;47.16;100905.47;1909765;74;21112;-82
2021/03/14 10:51:59;;;;;;;29.70;26.70;;;;;;;20.32;46.08;100893.07;1908234;74;21044;-81
2021/03/14 10:54:35;;;;;;;27.58;24.67;;;;;;;20.52;44.02;100891.81;1909362;74;21545;-80
2021/03/14 10:57:14;;;;;;;25.30;22.62;;;;;;;20.78;43.91;100891.23;1907590;74;21499;-81
2021/03/14 10:59:47;;;;;;;25.70;23.10;;;;;;;21.35;43.63;100891.33;1909879;74;21914;-87
2021/03/14 11:02:34;;;;;;;24.65;22.30;;;;;;;22.11;41.72;100894.41;1876128;74;21111;-87
2021/03/14 11:04:57;;;;;;;25.52;23.05;;;;;;;22.55;39.56;100892.91;1907848;74;21594;-85
2021/03/14 11:07:29;;;;;;;25.82;23.42;;;;;;;22.77;37.51;100880.74;1908994;74;21427;-84
2021/03/14 11:10:15;;;;;;;23.70;21.40;;;;;;;22.57;37.97;100875.03;1904887;74;21451;-83
2021/03/14 11:12:50;;;;;;;24.23;21.90;;;;;;;22.60;38.41;100881.30;1910440;74;22053;-79
2021/03/14 11:15:25;;;;;;;24.77;22.37;;;;;;;22.53;38.25;100879.01;1908119;74;21566;-80
2021/03/14 11:18:04;;;;;;;23.77;21.42;;;;;;;22.58;38.79;100865.28;1866479;74;21542;-79
2021/03/14 11:20:49;;;;;;;23.55;21.33;;;;;;;23.00;37.88;100864.39;1907413;74;21535;-82
2021/03/14 11:23:17;;;;;;;25.50;23.02;;;;;;;23.07;37.31;100858.69;1908236;74;21506;-81
2021/03/14 11:25:47;;;;;;;25.90;23.40;;;;;;;22.99;37.99;100853.96;1909567;74;21838;-84
2021/03/14 11:28:15;;;;;;;25.23;22.85;;;;;;;23.05;37.19;100852.75;1914708;74;21523;-85
2021/03/14 11:30:45;;;;;;;26.05;23.55;;;;;;;22.86;38.04;100846.61;1915548;74;21463;-85
2021/03/14 11:33:13;;;;;;;25.60;23.20;;;;;;;22.61;38.37;100846.41;1916836;74;21154;-81
2021/03/14 11:35:46;;;;;;;25.40;23.00;;;;;;;22.43;38.30;100845.86;1914666;74;21625;-82
2021/03/14 11:38:25;;;;;;;24.85;22.50;;;;;;;22.15;39.10;100845.47;1912993;74;21720;-82
2021/03/14 11:41:04;;;;;;;25.15;22.75;;;;;;;22.12;39.01;100838.71;1914527;74;21554;-88
2021/03/14 11:43:38;;;;;;;26.52;23.83;;;;;;;22.39;37.63;100826.05;1911423;74;21043;-85
2021/03/14 11:46:08;;;;;;;25.17;22.77;;;;;;;21.92;38.57;100819.48;1909482;74;21558;-82
2021/03/14 11:48:37;;;;;;;25.57;23.12;;;;;;;21.70;39.26;100817.02;1915582;74;21549;-84
2021/03/14 11:51:14;;;;;;;27.22;24.52;;;;;;;21.39;39.86;100810.81;1912680;74;21768;-82
2021/03/14 11:53:42;;;;;;;27.20;24.45;;;;;;;21.16;40.29;100808.02;1914176;74;21506;-87
2021/03/14 11:56:10;;;;;;;27.30;24.67;;;;;;;20.95;40.66;100811.63;1915803;74;21554;-86
2021/03/14 11:58:43;;;;;;;27.30;24.47;;;;;;;20.71;41.50;100801.87;1913917;74;21641;-85
2021/03/14 12:01:11;;;;;;;26.02;23.57;;;;;;;20.45;41.74;100805.14;1916128;74;21544;-84
2021/03/14 12:03:40;;;;;;;25.00;22.60;;;;;;;20.79;41.79;100803.70;1914903;74;21573;-84
2021/03/14 12:06:11;;;;;;;25.10;22.60;;;;;;;21.42;40.37;100795.46;1914004;74;21138;-81
2021/03/14 12:08:43;;;;;;;24.85;22.45;;;;;;;21.81;39.71;100784.97;1885852;74;21169;-81
2021/03/14 12:11:12;;;;;;;23.65;21.42;;;;;;;22.15;38.80;100788.64;1914475;74;21518;-81
2021/03/14 12:13:43;;;;;;;26.30;23.70;;;;;;;22.27;38.60;100787.28;1915113;74;21645;-80
2021/03/14 12:16:13;;;;;;;24.70;22.30;;;;;;;22.53;38.25;100775.86;1909306;74;21826;-84
2021/03/14 12:18:43;;;;;;;25.40;23.00;;;;;;;22.85;37.87;100775.32;1915512;74;21545;-83
2021/03/14 12:21:13;;;;;;;26.15;23.65;;;;;;;22.82;36.71;100767.73;1886692;74;21154;-84
2021/03/14 12:23:43;;;;;;;24.92;22.32;;;;;;;22.54;37.52;100769.58;1913992;74;21107;-85
2021/03/14 12:26:14;;;;;;;23.80;21.50;;;;;;;22.49;38.00;100757.89;1913516;74;21596;-82
2021/03/14 12:28:44;;;;;;;24.65;22.27;;;;;;;22.32;37.59;100758.98;1908240;74;21861;-86
2021/03/14 12:31:15;;;;;;;24.60;22.22;;;;;;;22.27;38.02;100757.37;1908057;74;21078;-84